Time,TemperatureF,DewpointF,PressureIn,WindDirection,WindDirectionDegrees,WindSpeedMPH,WindSpeedGustMPH,Humidity,HourlyPrecipIn,Conditions,Clouds,dailyrainin,SoftwareType,DateUTC
2013-02-17 00:00:00,32.0,21.6,29.22,North,0,0.0,0.0,65,0.00,,,0.00,WUHU216HW,2013-02-17 05:00:00,
2013-02-17 00:05:00,32.0,21.6,29.22,North,0,0.0,0.0,65,0.00,,,0.00,WUHU216HW,2013-02-17 05:05:00,
2013-02-17 00:29:00,31.7,20.9,29.19,North,0,0.0,0.0,64,0.00,,,0.00,WUHU216HW,2013-02-17 05:29:00,
2013-02-17 00:34:00,31.7,20.9,29.19,North,0,0.0,0.0,64,0.00,,,0.00,WUHU216HW,2013-02-17 05:34:00,
2013-02-17 00:59:00,31.3,19.8,29.19,North,0,0.0,0.0,62,0.00,,,0.00,WUHU216HW,2013-02-17 05:59:00,
2013-02-17 01:04:00,31.3,19.8,29.19,North,0,0.0,0.0,62,0.00,,,0.00,WUHU216HW,2013-02-17 06:04:00,
2013-02-17 01:29:00,31.0,17.9,29.18,North,0,0.0,0.0,58,0.00,,,0.00,WUHU216HW,2013-02-17 06:29:00,
2013-02-17 01:34:00,31.0,17.9,29.18,North,0,0.0,0.0,58,0.00,,,0.00,WUHU216HW,2013-02-17 06:34:00,
2013-02-17 01:59:00,30.2,14.7,29.15,North,0,0.0,0.0,52,0.00,,,0.00,WUHU216HW,2013-02-17 06:59:00,
2013-02-17 02:04:00,30.2,14.7,29.15,North,0,0.0,0.0,52,0.00,,,0.00,WUHU216HW,2013-02-17 07:04:00,
2013-02-17 02:30:00,29.9,14.0,29.15,North,0,0.0,0.0,51,0.00,,,0.00,WUHU216HW,2013-02-17 07:30:00,
2013-02-17 02:34:00,29.9,14.0,29.15,North,0,0.0,0.0,51,0.00,,,0.00,WUHU216HW,2013-02-17 07:34:00,
2013-02-17 03:00:00,29.7,12.3,29.12,North,0,0.0,0.0,48,0.00,,,0.00,WUHU216HW,2013-02-17 08:00:00,
2013-02-17 03:05:00,29.7,12.3,29.12,North,0,0.0,0.0,48,0.00,,,0.00,WUHU216HW,2013-02-17 08:05:00,
2013-02-17 03:30:00,29.5,12.3,29.11,North,0,0.0,0.0,48,0.00,,,0.00,WUHU216HW,2013-02-17 08:30:00,
2013-02-17 03:35:00,29.5,12.3,29.11,North,0,0.0,0.0,48,0.00,,,0.00,WUHU216HW,2013-02-17 08:35:00,
2013-02-17 03:59:00,28.6,13.7,29.09,North,0,0.0,0.0,53,0.00,,,0.00,WUHU216HW,2013-02-17 08:59:00,
2013-02-17 04:04:00,28.6,13.7,29.09,North,0,0.0,0.0,53,0.00,,,0.00,WUHU216HW,2013-02-17 09:04:00,
2013-02-17 04:29:00,28.1,14.4,29.08,North,0,0.0,0.0,56,0.00,,,0.00,WUHU216HW,2013-02-17 09:29:00,
2013-02-17 04:34:00,28.1,14.4,29.08,North,0,0.0,0.0,56,0.00,,,0.00,WUHU216HW,2013-02-17 09:34:00,
2013-02-17 04:59:00,27.0,15.7,29.06,North,0,0.0,0.0,62,0.00,,,0.00,WUHU216HW,2013-02-17 09:59:00,
2013-02-17 05:04:00,27.0,15.7,29.06,North,0,0.0,0.0,62,0.00,,,0.00,WUHU216HW,2013-02-17 10:04:00,
2013-02-17 05:29:00,25.0,18.2,29.05,North,0,0.0,0.0,75,0.00,,,0.00,WUHU216HW,2013-02-17 10:29:00,
2013-02-17 05:34:00,25.0,18.2,29.05,North,0,0.0,0.0,75,0.00,,,0.00,WUHU216HW,2013-02-17 10:34:00,
2013-02-17 05:59:00,24.1,17.9,29.04,North,0,0.0,0.0,77,0.00,,,0.00,WUHU216HW,2013-02-17 10:59:00,
2013-02-17 06:04:00,24.1,17.9,29.04,North,0,0.0,0.0,77,0.00,,,0.00,WUHU216HW,2013-02-17 11:04:00,
2013-02-17 06:29:00,22.7,17.7,29.02,North,0,0.0,0.0,81,0.00,,,0.00,WUHU216HW,2013-02-17 11:29:00,
2013-02-17 06:34:00,22.7,17.7,29.02,North,0,0.0,0.0,81,0.00,,,0.00,WUHU216HW,2013-02-17 11:34:00,
2013-02-17 06:59:00,21.6,17.5,28.99,North,0,0.0,0.0,84,0.00,,,0.00,WUHU216HW,2013-02-17 11:59:00,
2013-02-17 07:04:00,21.6,17.5,28.99,North,0,0.0,0.0,84,0.00,,,0.00,WUHU216HW,2013-02-17 12:04:00,
2013-02-17 07:29:00,21.1,17.5,28.97,North,0,0.0,0.0,86,0.00,,,0.00,WUHU216HW,2013-02-17 12:29:00,
2013-02-17 07:34:00,21.1,17.5,28.97,North,0,0.0,0.0,86,0.00,,,0.00,WUHU216HW,2013-02-17 12:34:00,
2013-02-17 07:59:00,20.5,16.7,28.96,North,0,0.0,0.0,85,0.00,,,0.00,WUHU216HW,2013-02-17 12:59:00,
2013-02-17 08:04:00,20.5,16.7,28.96,North,0,0.0,0.0,85,0.00,,,0.00,WUHU216HW,2013-02-17 13:04:00,
2013-02-17 08:30:00,19.8,16.5,28.93,North,0,0.0,0.0,87,0.00,,,0.00,WUHU216HW,2013-02-17 13:30:00,
2013-02-17 08:35:00,19.8,16.5,28.93,North,0,0.0,0.0,87,0.00,,,0.00,WUHU216HW,2013-02-17 13:35:00,
2013-02-17 08:59:00,19.4,16.1,28.91,North,0,0.0,0.0,87,0.00,,,0.00,WUHU216HW,2013-02-17 13:59:00,
2013-02-17 09:04:00,19.4,16.1,28.91,North,0,0.0,0.0,87,0.00,,,0.00,WUHU216HW,2013-02-17 14:04:00,
2013-02-17 09:30:00,19.4,16.4,28.90,North,0,0.0,0.0,88,0.00,,,0.00,WUHU216HW,2013-02-17 14:30:00,
2013-02-17 09:35:00,19.4,16.4,28.90,North,0,0.0,0.0,88,0.00,,,0.00,WUHU216HW,2013-02-17 14:35:00,
2013-02-17 09:59:00,19.4,16.1,28.89,North,0,0.0,0.0,87,0.00,,,0.00,WUHU216HW,2013-02-17 14:59:00,
2013-02-17 10:04:00,19.4,16.1,28.89,North,0,0.0,0.0,87,0.00,,,0.00,WUHU216HW,2013-02-17 15:04:00,
2013-02-17 10:29:00,19.4,16.1,28.87,North,0,0.0,0.0,87,0.00,,,0.00,WUHU216HW,2013-02-17 15:29:00,
2013-02-17 10:34:00,19.4,16.1,28.87,North,0,0.0,0.0,87,0.00,,,0.00,WUHU216HW,2013-02-17 15:34:00,
2013-02-17 10:59:00,19.8,16.5,28.87,North,0,0.0,0.0,87,0.00,,,0.00,WUHU216HW,2013-02-17 15:59:00,
2013-02-17 11:04:00,19.8,16.5,28.87,North,0,0.0,0.0,87,0.00,,,0.00,WUHU216HW,2013-02-17 16:04:00,
2013-02-17 11:29:00,20.0,16.7,28.86,North,0,0.0,0.0,87,0.00,,,0.00,WUHU216HW,2013-02-17 16:29:00,
2013-02-17 11:34:00,20.0,16.7,28.86,North,0,0.0,0.0,87,0.00,,,0.00,WUHU216HW,2013-02-17 16:34:00,
2013-02-17 11:59:00,20.0,16.1,28.86,North,0,0.0,0.0,85,0.00,,,0.00,WUHU216HW,2013-02-17 16:59:00,
2013-02-17 12:04:00,20.0,16.1,28.86,North,0,0.0,0.0,85,0.00,,,0.00,WUHU216HW,2013-02-17 17:04:00,
2013-02-17 12:29:00,20.5,15.8,28.86,North,0,0.0,0.0,82,0.00,,,0.00,WUHU216HW,2013-02-17 17:29:00,
2013-02-17 12:34:00,20.5,15.8,28.86,North,0,0.0,0.0,82,0.00,,,0.00,WUHU216HW,2013-02-17 17:34:00,
2013-02-17 12:59:00,21.4,15.3,28.85,North,0,0.0,0.0,77,0.00,,,0.00,WUHU216HW,2013-02-17 17:59:00,
2013-02-17 13:04:00,21.4,15.3,28.85,North,0,0.0,0.0,77,0.00,,,0.00,WUHU216HW,2013-02-17 18:04:00,
2013-02-17 13:29:00,22.0,15.5,28.86,North,0,0.0,0.0,76,0.00,,,0.00,WUHU216HW,2013-02-17 18:29:00,
2013-02-17 13:34:00,22.0,15.5,28.86,North,0,0.0,0.0,76,0.00,,,0.00,WUHU216HW,2013-02-17 18:34:00,
2013-02-17 13:59:00,22.0,15.9,28.87,North,0,0.0,0.0,77,0.00,,,0.00,WUHU216HW,2013-02-17 18:59:00,
2013-02-17 14:04:00,22.0,15.9,28.87,North,0,0.0,0.0,77,0.00,,,0.00,WUHU216HW,2013-02-17 19:04:00,
2013-02-17 14:29:00,22.3,14.3,28.87,North,0,0.0,0.0,71,0.00,,,0.00,WUHU216HW,2013-02-17 19:29:00,
2013-02-17 14:34:00,22.3,14.3,28.87,North,0,0.0,0.0,71,0.00,,,0.00,WUHU216HW,2013-02-17 19:34:00,
2013-02-17 14:59:00,22.7,13.3,28.88,North,0,0.0,0.0,67,0.00,,,0.00,WUHU216HW,2013-02-17 19:59:00,
2013-02-17 15:04:00,22.7,13.3,28.88,North,0,0.0,0.0,67,0.00,,,0.00,WUHU216HW,2013-02-17 20:04:00,
2013-02-17 15:29:00,22.3,10.9,28.90,North,0,0.0,0.0,61,0.00,,,0.00,WUHU216HW,2013-02-17 20:29:00,
2013-02-17 15:34:00,22.3,10.9,28.90,North,0,0.0,0.0,61,0.00,,,0.00,WUHU216HW,2013-02-17 20:34:00,
2013-02-17 15:59:00,22.3,8.5,28.91,North,0,0.0,0.0,55,0.00,,,0.00,WUHU216HW,2013-02-17 20:59:00,
2013-02-17 16:04:00,22.3,8.5,28.91,North,0,0.0,0.0,55,0.00,,,0.00,WUHU216HW,2013-02-17 21:04:00,
2013-02-17 16:29:00,22.0,7.7,28.93,North,0,0.0,0.0,54,0.00,,,0.00,WUHU216HW,2013-02-17 21:29:00,
2013-02-17 16:34:00,22.0,7.7,28.93,North,0,0.0,0.0,54,0.00,,,0.00,WUHU216HW,2013-02-17 21:34:00,
2013-02-17 16:59:00,22.1,6.3,28.94,North,0,0.0,0.0,50,0.00,,,0.00,WUHU216HW,2013-02-17 21:59:00,
2013-02-17 17:04:00,22.1,6.3,28.94,North,0,0.0,0.0,50,0.00,,,0.00,WUHU216HW,2013-02-17 22:04:00,
2013-02-17 17:29:00,22.0,5.7,28.96,North,0,0.0,0.0,49,0.00,,,0.00,WUHU216HW,2013-02-17 22:29:00,
2013-02-17 17:34:00,22.0,5.7,28.96,North,0,0.0,0.0,49,0.00,,,0.00,WUHU216HW,2013-02-17 22:34:00,
2013-02-17 17:59:00,22.0,5.1,28.98,North,0,0.0,0.0,48,0.00,,,0.00,WUHU216HW,2013-02-17 22:59:00,
2013-02-17 18:05:00,22.0,5.1,28.98,North,0,0.0,0.0,48,0.00,,,0.00,WUHU216HW,2013-02-17 23:05:00,
2013-02-17 18:29:00,21.8,4.5,28.98,North,0,0.0,0.0,47,0.00,,,0.00,WUHU216HW,2013-02-17 23:29:00,
2013-02-17 18:34:00,21.8,4.5,28.98,North,0,0.0,0.0,47,0.00,,,0.00,WUHU216HW,2013-02-17 23:34:00,
2013-02-17 18:59:00,21.2,5.4,29.00,North,0,0.0,0.0,50,0.00,,,0.00,WUHU216HW,2013-02-17 23:59:00,
2013-02-17 19:04:00,21.2,5.4,29.00,North,0,0.0,0.0,50,0.00,,,0.00,WUHU216HW,2013-02-18 00:04:00,
2013-02-17 19:29:00,21.1,6.0,29.01,North,0,0.0,0.0,52,0.00,,,0.00,WUHU216HW,2013-02-18 00:29:00,
2013-02-17 19:34:00,21.1,6.0,29.01,North,0,0.0,0.0,52,0.00,,,0.00,WUHU216HW,2013-02-18 00:34:00,
2013-02-17 19:59:00,20.9,5.0,29.03,North,0,0.0,0.0,50,0.00,,,0.00,WUHU216HW,2013-02-18 00:59:00,
2013-02-17 20:04:00,20.9,5.0,29.03,North,0,0.0,0.0,50,0.00,,,0.00,WUHU216HW,2013-02-18 01:04:00,
2013-02-17 20:29:00,20.9,4.6,29.04,North,0,0.0,0.0,49,0.00,,,0.00,WUHU216HW,2013-02-18 01:29:00,
2013-02-17 20:34:00,20.9,4.6,29.04,North,0,0.0,0.0,49,0.00,,,0.00,WUHU216HW,2013-02-18 01:34:00,
2013-02-17 20:59:00,20.7,5.0,29.07,North,0,0.0,0.0,50,0.00,,,0.00,WUHU216HW,2013-02-18 01:59:00,
2013-02-17 21:04:00,20.7,5.0,29.07,North,0,0.0,0.0,50,0.00,,,0.00,WUHU216HW,2013-02-18 02:04:00,
2013-02-17 21:29:00,20.3,4.6,29.09,North,0,0.0,0.0,50,0.00,,,0.00,WUHU216HW,2013-02-18 02:29:00,
2013-02-17 21:34:00,20.3,4.6,29.09,North,0,0.0,0.0,50,0.00,,,0.00,WUHU216HW,2013-02-18 02:34:00,
2013-02-17 21:59:00,19.8,3.6,29.10,North,0,0.0,0.0,49,0.00,,,0.00,WUHU216HW,2013-02-18 02:59:00,
2013-02-17 22:04:00,19.8,3.6,29.10,North,0,0.0,0.0,49,0.00,,,0.00,WUHU216HW,2013-02-18 03:04:00,
2013-02-17 22:29:00,19.1,3.9,29.11,North,0,0.0,0.0,51,0.00,,,0.00,WUHU216HW,2013-02-18 03:29:00,
2013-02-17 22:34:00,19.1,3.9,29.11,North,0,0.0,0.0,51,0.00,,,0.00,WUHU216HW,2013-02-18 03:34:00,
2013-02-17 22:59:00,18.7,3.5,29.12,North,0,0.0,0.0,51,0.00,,,0.00,WUHU216HW,2013-02-18 03:59:00,
2013-02-17 23:04:00,18.7,3.5,29.12,North,0,0.0,0.0,51,0.00,,,0.00,WUHU216HW,2013-02-18 04:04:00,
2013-02-17 23:29:00,18.2,3.4,29.13,North,0,0.0,0.0,52,0.00,,,0.00,WUHU216HW,2013-02-18 04:29:00,
2013-02-17 23:34:00,18.2,3.4,29.13,North,0,0.0,0.0,52,0.00,,,0.00,WUHU216HW,2013-02-18 04:34:00,